Martin Express — WDB3169 — position and weather

sailwx.info

Track history (hours):
 
Tides and Currents Weather Stations Pressure Air Temp Water Temp Dewpoint Dewpoint Depression Visibility Wind Speed Wind Dir Waves Ship Positions

Martin Express

Owner: CF Martin Sulphur LP, La Porte, TX. More information available from US FCC via Universal Licensing System and Coast Guard Vessel Documentation Center.

Last reported at 2018-Jun-23 11:20 UTC. Time now 2018-Jun-23 11:40 UTC.
Position N 29°42' W 095°01'.

Length 18 m; draft 3 m.

Type: Towing. MMSI: 366884150.

Date/timePositionNaut miles runAvg speedWind from/ knotsBaromVisibWave heightAir tempDewpointWater temp
2018-Jun-23 11:20N 29°42' W 095°01'2 6.6
2018-Jun-23 10:59N 29°41' W 094°59'3 7.0
2018-Jun-23 10:30N 29°38' W 094°58'4 7.1
2018-Jun-23 10:00N 29°34' W 094°56'4 7.3
2018-Jun-23 09:27N 29°31' W 094°53'4 7.7
2018-Jun-23 08:59N 29°28' W 094°51'4 8.3
2018-Jun-23 08:30N 29°24' W 094°49'5 8.8
2018-Jun-23 07:59N 29°21' W 094°47'3 5.2
2018-Jun-23 07:30N 29°19' W 094°48'1 1.4
2018-Jun-23 07:00N 29°18' W 094°49'0 0.0
2018-Jun-23 06:29N 29°18' W 094°49'0 0.0
2018-Jun-23 06:00N 29°18' W 094°49'0 0.0
2018-Jun-23 05:30N 29°18' W 094°49'0 0.0
2018-Jun-23 05:00N 29°18' W 094°49'0 0.0
2018-Jun-23 04:29N 29°18' W 094°49'0 0.0
2018-Jun-23 04:00N 29°18' W 094°49'0 0.0
2018-Jun-23 03:30N 29°18' W 094°49'1 2.0
2018-Jun-23 02:59N 29°19' W 094°48'2 4.9
2018-Jun-23 02:30N 29°21' W 094°47'4 7.3
2018-Jun-23 02:00N 29°24' W 094°49'4 7.0
2018-Jun-23 01:30N 29°27' W 094°51'3 6.7
2018-Jun-23 01:00N 29°30' W 094°52'3 6.1
2018-Jun-23 00:27N 29°33' W 094°55'3 5.8
2018-Jun-22 23:57N 29°35' W 094°56'3 5.6
2018-Jun-22 23:23N 29°38' W 094°58'3 6.0
2018-Jun-22 22:53N 29°41' W 094°59'13 0.9
2018-Jun-22 07:53N 29°43' W 095°14'0 0.0
2018-Jun-22 05:48N 29°43' W 095°14'0 0.0
2018-Jun-22 05:27N 29°43' W 095°14'0 0.0
2018-Jun-22 04:56N 29°43' W 095°14'2 0.4
2018-Jun-22 00:40N 29°44' W 095°12'4 5.7
2018-Jun-21 23:53N 29°44' W 095°07'3 5.1
2018-Jun-21 23:23N 29°46' W 095°05'5 0.2
2018-Jun-21 02:20N 29°42' W 095°01'2 5.6
2018-Jun-21 01:59N 29°41' W 094°59'3 5.8
2018-Jun-21 01:29N 29°39' W 094°58'3 6.2
2018-Jun-21 01:00N 29°36' W 094°57'3 6.3
2018-Jun-21 00:30N 29°33' W 094°55'3 5.9
2018-Jun-20 23:58N 29°31' W 094°53'4 5.9
2018-Jun-20 23:17N 29°27' W 094°51'2 6.2
2018-Jun-20 23:00N 29°26' W 094°50'3 6.0
2018-Jun-20 22:30N 29°23' W 094°48'3 5.7
2018-Jun-20 22:00N 29°21' W 094°46'3 5.6
2018-Jun-20 21:30N 29°19' W 094°49'0 0.2
2018-Jun-20 20:11N 29°18' W 094°49'0 0.0
2018-Jun-20 19:58N 29°18' W 094°49'0 0.0
2018-Jun-20 19:29N 29°18' W 094°49'0 0.0
2018-Jun-20 14:15N 29°18' W 094°49'0 1.1
2018-Jun-20 14:00N 29°19' W 094°49'16 5.4
2018-Jun-20 11:03N 29°34' W 094°55'2 6.0
2018-Jun-20 10:42N 29°35' W 094°56'3 6.0
2018-Jun-20 10:14N 29°38' W 094°58'3 6.1
2018-Jun-20 09:45N 29°41' W 094°59'1 5.8
2018-Jun-20 09:30N 29°42' W 094°60'1 0.1
2018-Jun-19 19:16N 29°42' W 095°01'1 3.2
2018-Jun-19 18:58N 29°42' W 095°00'3 6.7
2018-Jun-19 18:30N 29°39' W 094°58'4 6.8
2018-Jun-19 17:59N 29°36' W 094°57'3 6.2
2018-Jun-19 17:30N 29°34' W 094°55'4 7.1
2018-Jun-19 17:00N 29°31' W 094°53'4 7.3
2018-Jun-19 16:30N 29°27' W 094°51'4 7.9
2018-Jun-19 16:00N 29°24' W 094°49'4 8.3
2018-Jun-19 15:30N 29°20' W 094°47'3 4.6
2018-Jun-19 14:57N 29°19' W 094°49'0 0.1
2018-Jun-19 10:08N 29°18' W 094°49'0 0.0
2018-Jun-19 09:16N 29°18' W 094°49'0 0.0
2018-Jun-19 08:58N 29°18' W 094°49'0 0.0
2018-Jun-19 08:28N 29°18' W 094°49'0 0.0
2018-Jun-19 07:57N 29°18' W 094°49'0 0.0
2018-Jun-19 07:23N 29°18' W 094°49'0 0.0
2018-Jun-19 06:58N 29°18' W 094°49'0 0.0
2018-Jun-19 06:27N 29°18' W 094°49'0 0.0
2018-Jun-19 06:00N 29°18' W 094°49'0 0.0
2018-Jun-19 05:28N 29°18' W 094°49'0 0.0
2018-Jun-19 05:00N 29°18' W 094°49'0 0.0
2018-Jun-19 04:28N 29°18' W 094°49'0 0.0
2018-Jun-19 04:00N 29°18' W 094°49'0 0.0
2018-Jun-19 03:30N 29°18' W 094°49'0 0.0
2018-Jun-19 03:00N 29°18' W 094°49'0 0.0
2018-Jun-19 02:26N 29°18' W 094°49'0 0.0
2018-Jun-19 01:59N 29°18' W 094°49'0 0.0
2018-Jun-19 01:19N 29°18' W 094°49'0 0.0
2018-Jun-19 00:44N 29°18' W 094°49'0 0.0
2018-Jun-19 00:14N 29°18' W 094°49'0 0.0
2018-Jun-18 23:59N 29°18' W 094°49'0 0.0
2018-Jun-18 23:30N 29°18' W 094°49'0 0.0
2018-Jun-18 23:00N 29°18' W 094°49'0 0.0
2018-Jun-18 20:14N 29°18' W 094°49'0 0.0
2018-Jun-18 19:40N 29°18' W 094°49'0 0.0
2018-Jun-18 19:26N 29°18' W 094°49'0 0.0
2018-Jun-18 17:33N 29°18' W 094°49'0 0.1
2018-Jun-18 17:29N 29°18' W 094°49'0 0.0
2018-Jun-18 15:36N 29°18' W 094°49'0 0.0
2018-Jun-18 15:17N 29°18' W 094°49'0 0.0
2018-Jun-18 15:00N 29°18' W 094°49'0 0.2
2018-Jun-18 14:30N 29°18' W 094°49'0 0.2
2018-Jun-18 14:00N 29°18' W 094°49'0 0.0
2018-Jun-18 13:30N 29°18' W 094°49'0 0.0
2018-Jun-18 13:00N 29°18' W 094°49'0 0.0
2018-Jun-18 12:27N 29°18' W 094°49'0 0.0
2018-Jun-18 12:00N 29°18' W 094°49'1 2.5
2018-Jun-18 11:30N 29°19' W 094°48'3 4.8
2018-Jun-18 10:59N 29°21' W 094°47'3 6.3
2018-Jun-18 10:30N 29°24' W 094°49'11 6.4
2018-Jun-18 08:42N 29°34' W 094°55'5 6.2
2018-Jun-18 07:52N 29°38' W 094°58'3 6.6
2018-Jun-18 07:25N 29°41' W 094°59'  
2018-Jun-15 19:32N 29°42' W 095°01'0 6.4
2018-Jun-15 19:30N 29°42' W 095°01'3 6.1
2018-Jun-15 19:00N 29°40' W 094°58'3 6.8
2018-Jun-15 18:30N 29°37' W 094°57'3 6.8
2018-Jun-15 18:00N 29°34' W 094°55'4 7.0
2018-Jun-15 17:28N 29°31' W 094°53'4 7.3
2018-Jun-15 16:57N 29°27' W 094°51'4 7.9
2018-Jun-15 16:30N 29°24' W 094°49'4 7.8
2018-Jun-15 16:00N 29°21' W 094°47'1 1.3
2018-Jun-15 15:00N 29°19' W 094°47'0 0.0
2018-Jun-15 14:30N 29°19' W 094°47'0 0.0
2018-Jun-15 14:00N 29°19' W 094°47'0 0.0
2018-Jun-15 13:30N 29°19' W 094°47'0 0.0
2018-Jun-15 13:00N 29°19' W 094°47'0 0.0
2018-Jun-15 12:30N 29°19' W 094°47'0 0.0
2018-Jun-15 12:00N 29°19' W 094°47'0 0.0
2018-Jun-15 11:30N 29°19' W 094°47'0 0.0
2018-Jun-15 11:00N 29°19' W 094°47'0 0.0
2018-Jun-15 10:30N 29°19' W 094°47'0 0.0
2018-Jun-15 10:00N 29°19' W 094°47'0 0.0
2018-Jun-15 09:30N 29°19' W 094°47'0 0.0
2018-Jun-15 09:00N 29°19' W 094°47'0 0.0
2018-Jun-15 08:30N 29°19' W 094°47'0 0.0
2018-Jun-15 08:00N 29°19' W 094°47'0 0.0
2018-Jun-15 07:30N 29°19' W 094°47'0 0.0
2018-Jun-15 07:00N 29°19' W 094°47'0 0.0
2018-Jun-15 06:30N 29°19' W 094°47'0 0.0
2018-Jun-15 06:00N 29°19' W 094°47'0 0.0
2018-Jun-15 05:30N 29°19' W 094°47'0 0.0
2018-Jun-15 05:00N 29°19' W 094°47'0 0.0
2018-Jun-15 04:30N 29°19' W 094°47'0 0.0
2018-Jun-15 04:00N 29°19' W 094°47'0 0.0
2018-Jun-15 03:30N 29°19' W 094°47'0 0.0
2018-Jun-15 03:00N 29°19' W 094°47'0 0.0
2018-Jun-15 02:30N 29°19' W 094°47'0 0.0
2018-Jun-15 02:00N 29°19' W 094°47'0 0.0
2018-Jun-15 01:30N 29°19' W 094°47'0 0.0
2018-Jun-15 01:00N 29°19' W 094°47'0 0.0
2018-Jun-15 00:30N 29°19' W 094°47'0 0.0
2018-Jun-15 00:00N 29°19' W 094°47'0 0.0
2018-Jun-14 23:30N 29°19' W 094°47'0 0.0
2018-Jun-14 23:00N 29°19' W 094°47'0 0.2
2018-Jun-14 22:30N 29°19' W 094°47'0 0.0
2018-Jun-14 21:57N 29°19' W 094°47'0 0.0
2018-Jun-14 21:30N 29°19' W 094°47'0 0.3
2018-Jun-14 21:00N 29°19' W 094°47'0 0.1
2018-Jun-14 20:30N 29°19' W 094°47'0 0.0
2018-Jun-14 20:00N 29°19' W 094°47'0 0.0
2018-Jun-14 19:30N 29°19' W 094°47'0 0.0
2018-Jun-14 19:00N 29°19' W 094°47'0 0.1
2018-Jun-14 18:28N 29°19' W 094°47'1 2.2
2018-Jun-14 18:00N 29°19' W 094°48'1 2.3
2018-Jun-14 17:30N 29°18' W 094°49'0 0.0
2018-Jun-14 17:00N 29°18' W 094°49'0 0.0
2018-Jun-14 16:30N 29°18' W 094°49'0 0.0
2018-Jun-14 16:00N 29°18' W 094°49'0 0.0
2018-Jun-14 15:30N 29°18' W 094°49'0 0.0
2018-Jun-14 15:00N 29°18' W 094°49'0 0.0
2018-Jun-14 14:30N 29°18' W 094°49'0 0.0
2018-Jun-14 13:58N 29°18' W 094°49'0 0.1
2018-Jun-14 13:30N 29°18' W 094°49'0 0.0
2018-Jun-14 13:00N 29°18' W 094°49'0 0.1
2018-Jun-14 12:30N 29°18' W 094°49'0 0.0
2018-Jun-14 12:00N 29°18' W 094°49'0 0.0
2018-Jun-14 11:30N 29°18' W 094°49'0 0.0
2018-Jun-14 11:00N 29°18' W 094°49'0 0.1
2018-Jun-14 10:30N 29°18' W 094°49'0 0.0
2018-Jun-14 09:42N 29°18' W 094°49'0 0.0
2018-Jun-14 09:29N 29°18' W 094°49'0 0.0
2018-Jun-14 08:59N 29°18' W 094°49'0 0.0
2018-Jun-14 08:30N 29°18' W 094°49'0 0.0
2018-Jun-14 08:00N 29°18' W 094°49'0 0.0
2018-Jun-14 07:30N 29°18' W 094°49'0 0.0
2018-Jun-14 06:59N 29°18' W 094°49'0 0.0
2018-Jun-14 06:30N 29°18' W 094°49'0 0.1
2018-Jun-14 06:00N 29°18' W 094°49'0 0.1
2018-Jun-14 05:28N 29°18' W 094°49'0 0.0
2018-Jun-14 05:00N 29°18' W 094°49'0 0.0
2018-Jun-14 04:30N 29°18' W 094°49'0 0.0
2018-Jun-14 04:00N 29°18' W 094°49'0 0.0
2018-Jun-14 03:30N 29°18' W 094°49'0 0.1
2018-Jun-14 03:00N 29°18' W 094°49'0 0.6
2018-Jun-14 02:29N 29°19' W 094°49'2 4.2
2018-Jun-14 01:59N 29°20' W 094°47'3 6.5
2018-Jun-14 01:27N 29°23' W 094°49'4 7.2
2018-Jun-14 00:54N 29°26' W 094°50'3 6.2
2018-Jun-14 00:21N 29°30' W 094°52'4 5.8
2018-Jun-13 23:36N 29°33' W 094°55'1 5.6
2018-Jun-13 23:28N 29°34' W 094°55'8 5.7
2018-Jun-13 22:00N 29°41' W 094°59'  
Track history (hours):
 
Tides and Currents Weather Stations Pressure Air Temp Water Temp Dewpoint Dewpoint Depression Visibility Wind Speed Wind Dir Waves Ship Positions

Martin Express

Owner: CF Martin Sulphur LP, La Porte, TX. More information available from US FCC via Universal Licensing System and Coast Guard Vessel Documentation Center.

Last reported at 2018-Jun-23 11:20 UTC. Time now 2018-Jun-23 11:40 UTC.
Position N 29°42' W 095°01'.

Length 18 m; draft 3 m.

Type: Towing. MMSI: 366884150.

Date/timePositionNaut miles runAvg speedWind from/ knotsBaromVisibWave heightAir tempDewpointWater temp
2018-Jun-23 11:20N 29°42' W 095°01'2 6.6
2018-Jun-23 10:59N 29°41' W 094°59'3 7.0
2018-Jun-23 10:30N 29°38' W 094°58'4 7.1
2018-Jun-23 10:00N 29°34' W 094°56'4 7.3
2018-Jun-23 09:27N 29°31' W 094°53'4 7.7
2018-Jun-23 08:59N 29°28' W 094°51'4 8.3
2018-Jun-23 08:30N 29°24' W 094°49'5 8.8
2018-Jun-23 07:59N 29°21' W 094°47'3 5.2
2018-Jun-23 07:30N 29°19' W 094°48'1 1.4
2018-Jun-23 07:00N 29°18' W 094°49'0 0.0
2018-Jun-23 06:29N 29°18' W 094°49'0 0.0
2018-Jun-23 06:00N 29°18' W 094°49'0 0.0
2018-Jun-23 05:30N 29°18' W 094°49'0 0.0
2018-Jun-23 05:00N 29°18' W 094°49'0 0.0
2018-Jun-23 04:29N 29°18' W 094°49'0 0.0
2018-Jun-23 04:00N 29°18' W 094°49'0 0.0
2018-Jun-23 03:30N 29°18' W 094°49'1 2.0
2018-Jun-23 02:59N 29°19' W 094°48'2 4.9
2018-Jun-23 02:30N 29°21' W 094°47'4 7.3
2018-Jun-23 02:00N 29°24' W 094°49'4 7.0
2018-Jun-23 01:30N 29°27' W 094°51'3 6.7
2018-Jun-23 01:00N 29°30' W 094°52'3 6.1
2018-Jun-23 00:27N 29°33' W 094°55'3 5.8
2018-Jun-22 23:57N 29°35' W 094°56'3 5.6
2018-Jun-22 23:23N 29°38' W 094°58'3 6.0
2018-Jun-22 22:53N 29°41' W 094°59'13 0.9
2018-Jun-22 07:53N 29°43' W 095°14'0 0.0
2018-Jun-22 05:48N 29°43' W 095°14'0 0.0
2018-Jun-22 05:27N 29°43' W 095°14'0 0.0
2018-Jun-22 04:56N 29°43' W 095°14'2 0.4
2018-Jun-22 00:40N 29°44' W 095°12'4 5.7
2018-Jun-21 23:53N 29°44' W 095°07'3 5.1
2018-Jun-21 23:23N 29°46' W 095°05'5 0.2
2018-Jun-21 02:20N 29°42' W 095°01'2 5.6
2018-Jun-21 01:59N 29°41' W 094°59'3 5.8
2018-Jun-21 01:29N 29°39' W 094°58'3 6.2
2018-Jun-21 01:00N 29°36' W 094°57'3 6.3
2018-Jun-21 00:30N 29°33' W 094°55'3 5.9
2018-Jun-20 23:58N 29°31' W 094°53'4 5.9
2018-Jun-20 23:17N 29°27' W 094°51'2 6.2
2018-Jun-20 23:00N 29°26' W 094°50'3 6.0
2018-Jun-20 22:30N 29°23' W 094°48'3 5.7
2018-Jun-20 22:00N 29°21' W 094°46'3 5.6
2018-Jun-20 21:30N 29°19' W 094°49'0 0.2
2018-Jun-20 20:11N 29°18' W 094°49'0 0.0
2018-Jun-20 19:58N 29°18' W 094°49'0 0.0
2018-Jun-20 19:29N 29°18' W 094°49'0 0.0
2018-Jun-20 14:15N 29°18' W 094°49'0 1.1
2018-Jun-20 14:00N 29°19' W 094°49'16 5.4
2018-Jun-20 11:03N 29°34' W 094°55'2 6.0
2018-Jun-20 10:42N 29°35' W 094°56'3 6.0
2018-Jun-20 10:14N 29°38' W 094°58'3 6.1
2018-Jun-20 09:45N 29°41' W 094°59'1 5.8
2018-Jun-20 09:30N 29°42' W 094°60'1 0.1
2018-Jun-19 19:16N 29°42' W 095°01'1 3.2
2018-Jun-19 18:58N 29°42' W 095°00'3 6.7
2018-Jun-19 18:30N 29°39' W 094°58'4 6.8
2018-Jun-19 17:59N 29°36' W 094°57'3 6.2
2018-Jun-19 17:30N 29°34' W 094°55'4 7.1
2018-Jun-19 17:00N 29°31' W 094°53'4 7.3
2018-Jun-19 16:30N 29°27' W 094°51'4 7.9
2018-Jun-19 16:00N 29°24' W 094°49'4 8.3
2018-Jun-19 15:30N 29°20' W 094°47'3 4.6
2018-Jun-19 14:57N 29°19' W 094°49'0 0.1
2018-Jun-19 10:08N 29°18' W 094°49'0 0.0
2018-Jun-19 09:16N 29°18' W 094°49'0 0.0
2018-Jun-19 08:58N 29°18' W 094°49'0 0.0
2018-Jun-19 08:28N 29°18' W 094°49'0 0.0
2018-Jun-19 07:57N 29°18' W 094°49'0 0.0
2018-Jun-19 07:23N 29°18' W 094°49'0 0.0
2018-Jun-19 06:58N 29°18' W 094°49'0 0.0
2018-Jun-19 06:27N 29°18' W 094°49'0 0.0
2018-Jun-19 06:00N 29°18' W 094°49'0 0.0
2018-Jun-19 05:28N 29°18' W 094°49'0 0.0
2018-Jun-19 05:00N 29°18' W 094°49'0 0.0
2018-Jun-19 04:28N 29°18' W 094°49'0 0.0
2018-Jun-19 04:00N 29°18' W 094°49'0 0.0
2018-Jun-19 03:30N 29°18' W 094°49'0 0.0
2018-Jun-19 03:00N 29°18' W 094°49'0 0.0
2018-Jun-19 02:26N 29°18' W 094°49'0 0.0
2018-Jun-19 01:59N 29°18' W 094°49'0 0.0
2018-Jun-19 01:19N 29°18' W 094°49'0 0.0
2018-Jun-19 00:44N 29°18' W 094°49'0 0.0
2018-Jun-19 00:14N 29°18' W 094°49'0 0.0
2018-Jun-18 23:59N 29°18' W 094°49'0 0.0
2018-Jun-18 23:30N 29°18' W 094°49'0 0.0
2018-Jun-18 23:00N 29°18' W 094°49'0 0.0
2018-Jun-18 20:14N 29°18' W 094°49'0 0.0
2018-Jun-18 19:40N 29°18' W 094°49'0 0.0
2018-Jun-18 19:26N 29°18' W 094°49'0 0.0
2018-Jun-18 17:33N 29°18' W 094°49'0 0.1
2018-Jun-18 17:29N 29°18' W 094°49'0 0.0
2018-Jun-18 15:36N 29°18' W 094°49'0 0.0
2018-Jun-18 15:17N 29°18' W 094°49'0 0.0
2018-Jun-18 15:00N 29°18' W 094°49'0 0.2
2018-Jun-18 14:30N 29°18' W 094°49'0 0.2
2018-Jun-18 14:00N 29°18' W 094°49'0 0.0
2018-Jun-18 13:30N 29°18' W 094°49'0 0.0
2018-Jun-18 13:00N 29°18' W 094°49'0 0.0
2018-Jun-18 12:27N 29°18' W 094°49'0 0.0
2018-Jun-18 12:00N 29°18' W 094°49'1 2.5
2018-Jun-18 11:30N 29°19' W 094°48'3 4.8
2018-Jun-18 10:59N 29°21' W 094°47'3 6.3
2018-Jun-18 10:30N 29°24' W 094°49'11 6.4
2018-Jun-18 08:42N 29°34' W 094°55'5 6.2
2018-Jun-18 07:52N 29°38' W 094°58'3 6.6
2018-Jun-18 07:25N 29°41' W 094°59'  
2018-Jun-15 19:32N 29°42' W 095°01'0 6.4
2018-Jun-15 19:30N 29°42' W 095°01'3 6.1
2018-Jun-15 19:00N 29°40' W 094°58'3 6.8
2018-Jun-15 18:30N 29°37' W 094°57'3 6.8
2018-Jun-15 18:00N 29°34' W 094°55'4 7.0
2018-Jun-15 17:28N 29°31' W 094°53'4 7.3
2018-Jun-15 16:57N 29°27' W 094°51'4 7.9
2018-Jun-15 16:30N 29°24' W 094°49'4 7.8
2018-Jun-15 16:00N 29°21' W 094°47'1 1.3
2018-Jun-15 15:00N 29°19' W 094°47'0 0.0
2018-Jun-15 14:30N 29°19' W 094°47'0 0.0
2018-Jun-15 14:00N 29°19' W 094°47'0 0.0
2018-Jun-15 13:30N 29°19' W 094°47'0 0.0
2018-Jun-15 13:00N 29°19' W 094°47'0 0.0
2018-Jun-15 12:30N 29°19' W 094°47'0 0.0
2018-Jun-15 12:00N 29°19' W 094°47'0 0.0
2018-Jun-15 11:30N 29°19' W 094°47'0 0.0
2018-Jun-15 11:00N 29°19' W 094°47'0 0.0
2018-Jun-15 10:30N 29°19' W 094°47'0 0.0
2018-Jun-15 10:00N 29°19' W 094°47'0 0.0
2018-Jun-15 09:30N 29°19' W 094°47'0 0.0
2018-Jun-15 09:00N 29°19' W 094°47'0 0.0
2018-Jun-15 08:30N 29°19' W 094°47'0 0.0
2018-Jun-15 08:00N 29°19' W 094°47'0 0.0
2018-Jun-15 07:30N 29°19' W 094°47'0 0.0
2018-Jun-15 07:00N 29°19' W 094°47'0 0.0
2018-Jun-15 06:30N 29°19' W 094°47'0 0.0
2018-Jun-15 06:00N 29°19' W 094°47'0 0.0
2018-Jun-15 05:30N 29°19' W 094°47'0 0.0
2018-Jun-15 05:00N 29°19' W 094°47'0 0.0
2018-Jun-15 04:30N 29°19' W 094°47'0 0.0
2018-Jun-15 04:00N 29°19' W 094°47'0 0.0
2018-Jun-15 03:30N 29°19' W 094°47'0 0.0
2018-Jun-15 03:00N 29°19' W 094°47'0 0.0
2018-Jun-15 02:30N 29°19' W 094°47'0 0.0
2018-Jun-15 02:00N 29°19' W 094°47'0 0.0
2018-Jun-15 01:30N 29°19' W 094°47'0 0.0
2018-Jun-15 01:00N 29°19' W 094°47'0 0.0
2018-Jun-15 00:30N 29°19' W 094°47'0 0.0
2018-Jun-15 00:00N 29°19' W 094°47'0 0.0
2018-Jun-14 23:30N 29°19' W 094°47'0 0.0
2018-Jun-14 23:00N 29°19' W 094°47'0 0.2
2018-Jun-14 22:30N 29°19' W 094°47'0 0.0
2018-Jun-14 21:57N 29°19' W 094°47'0 0.0
2018-Jun-14 21:30N 29°19' W 094°47'0 0.3
2018-Jun-14 21:00N 29°19' W 094°47'0 0.1
2018-Jun-14 20:30N 29°19' W 094°47'0 0.0
2018-Jun-14 20:00N 29°19' W 094°47'0 0.0
2018-Jun-14 19:30N 29°19' W 094°47'0 0.0
2018-Jun-14 19:00N 29°19' W 094°47'0 0.1
2018-Jun-14 18:28N 29°19' W 094°47'1 2.2
2018-Jun-14 18:00N 29°19' W 094°48'1 2.3
2018-Jun-14 17:30N 29°18' W 094°49'0 0.0
2018-Jun-14 17:00N 29°18' W 094°49'0 0.0
2018-Jun-14 16:30N 29°18' W 094°49'0 0.0
2018-Jun-14 16:00N 29°18' W 094°49'0 0.0
2018-Jun-14 15:30N 29°18' W 094°49'0 0.0
2018-Jun-14 15:00N 29°18' W 094°49'0 0.0
2018-Jun-14 14:30N 29°18' W 094°49'0 0.0
2018-Jun-14 13:58N 29°18' W 094°49'0 0.1
2018-Jun-14 13:30N 29°18' W 094°49'0 0.0
2018-Jun-14 13:00N 29°18' W 094°49'0 0.1
2018-Jun-14 12:30N 29°18' W 094°49'0 0.0
2018-Jun-14 12:00N 29°18' W 094°49'0 0.0
2018-Jun-14 11:30N 29°18' W 094°49'0 0.0
2018-Jun-14 11:00N 29°18' W 094°49'0 0.1
2018-Jun-14 10:30N 29°18' W 094°49'0 0.0
2018-Jun-14 09:42N 29°18' W 094°49'0 0.0
2018-Jun-14 09:29N 29°18' W 094°49'0 0.0
2018-Jun-14 08:59N 29°18' W 094°49'0 0.0
2018-Jun-14 08:30N 29°18' W 094°49'0 0.0
2018-Jun-14 08:00N 29°18' W 094°49'0 0.0
2018-Jun-14 07:30N 29°18' W 094°49'0 0.0
2018-Jun-14 06:59N 29°18' W 094°49'0 0.0
2018-Jun-14 06:30N 29°18' W 094°49'0 0.1
2018-Jun-14 06:00N 29°18' W 094°49'0 0.1
2018-Jun-14 05:28N 29°18' W 094°49'0 0.0
2018-Jun-14 05:00N 29°18' W 094°49'0 0.0
2018-Jun-14 04:30N 29°18' W 094°49'0 0.0
2018-Jun-14 04:00N 29°18' W 094°49'0 0.0
2018-Jun-14 03:30N 29°18' W 094°49'0 0.1
2018-Jun-14 03:00N 29°18' W 094°49'0 0.6
2018-Jun-14 02:29N 29°19' W 094°49'2 4.2
2018-Jun-14 01:59N 29°20' W 094°47'3 6.5
2018-Jun-14 01:27N 29°23' W 094°49'4 7.2
2018-Jun-14 00:54N 29°26' W 094°50'3 6.2
2018-Jun-14 00:21N 29°30' W 094°52'4 5.8
2018-Jun-13 23:36N 29°33' W 094°55'1 5.6
2018-Jun-13 23:28N 29°34' W 094°55'8 5.7
2018-Jun-13 22:00N 29°41' W 094°59'  

Dump ship's entire track history